Aviation Digital Data Service (ADDS)

Output produced by METARs form (0544 UTC 19 March 2019)
found at http://www.aviationweather.gov/metar/data/
 
Forecast for: AGGN (GIZO/NUSATUPE , SB)
Text: TAF AGGN 190520Z 1906/2006 02010KT 9999 -SHRA FEW017 SCT028 BKN100 INTER 1906/1912 4000 TSSH BKN016 FEW016CB OVC100 Q 1007 1009 1010 1008
Forecast period: 0600 UTC 19 March 2019 to 0600 UTC 20 March 2019
Forecast type: FROM: standard forecast or significant change
Winds: from the NNE (20 degrees) at 12 MPH (10 knots; 5.1 m/s)
Visibility: 6 or more miles 10+ km)
Ceiling: 10000 feet AGL
Clouds: few clouds at 1700 feet AGL
scattered clouds at 2800 feet AGL
broken clouds at 10000 feet AGL
Weather: -SHRA  (light rain showers)
Text:
Forecast period: 0600 to 1200 UTC 19 March 2019
Forecast type: TEMPORARY: The following changes expected for less than half the time period
Visibility: 2.49 miles (4.01 km)
Ceiling: 1600 feet AGL
Clouds: broken clouds at 1600 feet AGL
few clouds at 1600 feet AGL
overcast cloud deck at 10000 feet AGL
Weather: SH TS  (showers, thunderstorm)